Aérodrome :
LOGIN :

S'inscrire | Disclaimer

   EN    FR    IT 

 










Légende :    VFR   VFR Marginal   IFR   IFR Intensif   IFR Très Intensif
Visi : 
Plafond : 
>= 8 km
>= 3000ft
5 à 8 km
1000 à 3000 ft
1500m à 5 km
500 à 1000 ft
800 à 1500m
200 à 500 ft
< 800m
< 200 ft
Symboles :   Orages  Brouillard  Fortes neiges  Fortes précipitations  Vent > 20 kt
SIGMETs :   Divers  Orages  Givrage  Turbulence  Onde Orograph.  Cendres Volcan.






- Altitude de l'aérodrome : 79 ft
- Code IATA : NSY


LICZ - Sigonella (Mil) Catania

DERNIER METAR :
  • 180255Z 26006KT CAVOK 04/04 Q1024 RMK SKC VIS MIN 9999 WIND THR28 24003KT WIND THR10 27005KT A3025 BLU

METARs EXPIRÉS :
  • 180155Z 29005KT CAVOK 06/06 Q1024 RMK SKC VIS MIN 9999 WIND THR28 28005KT WIND THR10 29005KT A3026 BLU
  • 180055Z 28007KT CAVOK 06/06 Q1025 RMK SKC VIS MIN 9999 WIND THR28 29008KT WIND THR10 28005KT A3029 BLU

TAF TAF LICZ
Valide du 18 à 00h jusqu'au 19 à 00h UTC


172300Z 1800/1824 27005KT CAVOK
PROB30
TEMPO 1800/1804 4000 BR NSC
BECMG 1813/1815 08011KT 9999 FEW030



MET'MAP, la Météo Aéronautique d'un coup d'oeil ! - Copyright ORBIFLY Décembre 2007 - Disclaimer

ORBIFLY MET'MAP TEAM :

Programmation & Développement : Alexandra Zaïnal
Sur une idée originale de : Baudouin d'Aumeries
Assistance à la programmation : Marc-Olivier Méhu
Soutien technique & logistique : Manuel Goepfert

Contact : metmap@orbifly.com




SOURCES & CREDITS :

   NOAA